Goffs, California
Current Conditions -  °F | °C
As of 6:56 PM on Sunday 21 Dec 2014 (Local Time) from KEED Reporting Station
Clear Clear  
Wind Chill: 54°   Ceiling: Unl
Heat Index: 54°   Visibility: 10mi
Dew Point: 41°   Wind: 5mph
Humidity: 62%   Direction: 250°WSW
Pressure: 30.07"   Gusts: NA
Location:  34.6052°N, 115.241°W
Report Text: KEED 220256Z AUTO 25004KT 10SM CLR 12/05 A3007 RMK AO2 SLP174 T01220050 53005
Loading
Personal Weather Stations






























Interactive Weather Map New forecast layout! Learn more

10-Day Weather Forecast

Advertisements
Track Severe Weather on mobile